createdAt,value
2019-02-27T00:00:49.452Z,21.73
2019-02-27T00:03:19.457Z,19.43
2019-02-27T00:05:49.309Z,21.50
2019-02-27T00:08:20.237Z,20.23
2019-02-27T00:10:50.253Z,16.07
2019-02-27T00:13:24.701Z,16.00
2019-02-27T00:15:51.987Z,20.00
2019-02-27T00:18:24.038Z,17.63
2019-02-27T00:20:53.516Z,18.17
2019-02-27T00:23:24.190Z,17.03
2019-02-27T00:25:54.582Z,16.70
2019-02-27T00:28:24.472Z,16.50
2019-02-27T00:30:54.511Z,15.60
2019-02-27T00:33:26.078Z,13.97
2019-02-27T00:35:56.012Z,16.13
2019-02-27T00:38:25.937Z,15.27
2019-02-27T00:40:55.895Z,18.40
2019-02-27T00:43:26.005Z,16.33
2019-02-27T00:45:58.889Z,16.97
2019-02-27T00:48:29.191Z,16.53
2019-02-27T00:50:59.069Z,17.37
2019-02-27T00:53:28.928Z,16.27
2019-02-27T00:55:58.795Z,17.80
2019-02-27T00:58:28.649Z,16.67
2019-02-27T01:00:58.596Z,16.43
2019-02-27T01:03:28.549Z,15.20
2019-02-27T01:05:58.463Z,17.53
2019-02-27T01:08:28.353Z,16.40
2019-02-27T01:10:58.272Z,15.17
2019-02-27T01:13:28.913Z,15.30
2019-02-27T01:15:59.696Z,20.40
2019-02-27T01:18:30.800Z,17.20
2019-02-27T01:21:01.135Z,16.20
2019-02-27T01:23:31.075Z,18.47
2019-02-27T01:26:00.938Z,16.97
2019-02-27T01:28:30.905Z,16.62
2019-02-27T01:31:00.824Z,15.33
2019-02-27T01:33:30.694Z,16.00
2019-02-27T01:36:00.624Z,16.97
2019-02-27T01:38:31.460Z,16.10
2019-02-27T01:41:01.409Z,18.42
2019-02-27T01:43:31.343Z,17.43
2019-02-27T01:46:01.228Z,19.53
2019-02-27T01:48:31.171Z,15.72
2019-02-27T01:51:01.128Z,15.72
2019-02-27T01:53:30.987Z,20.90
2019-02-27T01:56:00.871Z,18.10
2019-02-27T01:58:30.803Z,16.73
2019-02-27T02:01:00.680Z,16.65
2019-02-27T02:03:30.657Z,16.67
2019-02-27T02:06:00.604Z,16.95
2019-02-27T02:08:30.479Z,16.20
2019-02-27T02:11:02.105Z,14.70
2019-02-27T02:14:07.015Z,15.40
2019-02-27T02:16:42.950Z,16.97
2019-02-27T02:19:39.876Z,15.48
2019-02-27T02:22:21.699Z,17.17
2019-02-27T02:25:03.490Z,15.00
2019-02-27T02:27:42.286Z,14.30
2019-02-27T02:30:15.244Z,16.80
2019-02-27T02:33:07.960Z,17.75
2019-02-27T02:35:40.991Z,17.05
2019-02-27T02:38:19.725Z,16.90
2019-02-27T02:40:55.385Z,14.70
2019-02-27T02:43:41.512Z,15.05
2019-02-27T02:46:14.548Z,15.85
2019-02-27T02:49:06.507Z,14.65
2019-02-27T02:51:51.625Z,18.15
2019-02-27T02:54:37.443Z,14.73
2019-02-27T02:57:24.235Z,16.10
2019-02-27T03:00:03.046Z,14.50
2019-02-27T03:02:57.628Z,15.78
2019-02-27T03:05:33.013Z,13.68
2019-02-27T03:08:09.853Z,13.85
2019-02-27T03:10:48.884Z,14.07
2019-02-27T03:13:30.940Z,17.40
2019-02-27T03:16:12.909Z,14.07
2019-02-27T03:19:04.824Z,12.80
2019-02-27T03:21:41.698Z,13.13
2019-02-27T03:24:34.644Z,15.63
2019-02-27T03:27:07.589Z,12.68
2019-02-27T03:29:51.959Z,14.70
2019-02-27T03:32:24.282Z,13.85
2019-02-27T03:35:28.349Z,12.85
2019-02-27T03:38:24.106Z,14.98
2019-02-27T03:41:13.567Z,12.35
2019-02-27T03:43:58.396Z,11.93
2019-02-27T03:46:47.921Z,18.23
2019-02-27T03:49:29.775Z,13.53
2019-02-27T03:52:19.034Z,13.43
2019-02-27T03:55:03.969Z,12.65
2019-02-27T03:58:05.893Z,14.23
2019-02-27T04:00:43.240Z,12.37
2019-02-27T04:03:31.064Z,12.53
2019-02-27T04:06:20.199Z,13.45
2019-02-27T04:08:57.700Z,13.70
2019-02-27T04:11:28.169Z,13.20
2019-02-27T04:14:04.800Z,16.48
2019-02-27T04:16:30.732Z,21.45
2019-02-27T04:19:04.460Z,16.62
2019-02-27T04:21:32.211Z,19.92
2019-02-27T04:24:02.143Z,22.20
2019-02-27T04:26:32.096Z,19.32
2019-02-27T04:29:04.431Z,17.82
2019-02-27T04:31:34.648Z,18.05
2019-02-27T04:34:04.595Z,16.55
2019-02-27T04:36:34.457Z,17.73
2019-02-27T04:39:06.450Z,19.80
2019-02-27T04:41:36.743Z,16.10
2019-02-27T04:44:06.757Z,16.93
2019-02-27T04:46:36.616Z,17.07
2019-02-27T04:49:07.555Z,19.40
2019-02-27T04:51:37.407Z,20.08
2019-02-27T04:54:07.542Z,13.55
2019-02-27T04:56:37.538Z,20.17
2019-02-27T04:59:07.471Z,18.30
2019-02-27T05:01:37.452Z,17.52
2019-02-27T05:04:07.467Z,18.90
2019-02-27T05:06:38.400Z,20.45
2019-02-27T05:09:08.330Z,17.20
2019-02-27T05:11:38.275Z,17.42
2019-02-27T05:14:08.187Z,18.77
2019-02-27T05:16:38.052Z,22.22
2019-02-27T05:19:07.900Z,20.25
2019-02-27T05:21:37.763Z,22.35
2019-02-27T05:24:08.558Z,20.40
2019-02-27T05:26:38.563Z,20.00
2019-02-27T05:29:08.410Z,20.92
2019-02-27T05:31:38.287Z,19.10
2019-02-27T05:34:12.378Z,18.37
2019-02-27T05:36:39.859Z,17.80
2019-02-27T05:39:09.774Z,15.90
2019-02-27T05:41:39.649Z,17.65
2019-02-27T05:44:09.583Z,20.52
2019-02-27T05:46:39.484Z,21.60
2019-02-27T05:49:09.380Z,22.37
2019-02-27T05:51:39.311Z,18.80
2019-02-27T05:54:09.251Z,22.98
2019-02-27T05:56:39.254Z,18.98
2019-02-27T05:59:09.159Z,24.07
2019-02-27T06:01:39.198Z,20.48
2019-02-27T06:04:09.126Z,21.25
2019-02-27T06:06:39.076Z,23.65
2019-02-27T06:09:10.487Z,18.62
2019-02-27T06:11:40.586Z,16.90
2019-02-27T06:14:10.837Z,17.77
2019-02-27T06:16:40.939Z,14.87
2019-02-27T06:19:11.029Z,18.90
2019-02-27T06:21:40.978Z,17.27
2019-02-27T06:24:12.532Z,12.82
2019-02-27T06:26:42.695Z,15.23
2019-02-27T06:29:12.576Z,16.85
2019-02-27T06:31:42.513Z,15.53
2019-02-27T06:34:12.454Z,17.40
2019-02-27T06:36:43.061Z,18.77
2019-02-27T06:39:13.159Z,17.15
2019-02-27T06:41:43.139Z,17.90
2019-02-27T06:44:13.081Z,23.92
2019-02-27T06:46:44.479Z,19.15
2019-02-27T06:49:17.499Z,21.20
2019-02-27T06:51:46.111Z,19.62
2019-02-27T06:54:18.123Z,17.85
2019-02-27T06:56:47.584Z,22.17
2019-02-27T06:59:18.232Z,14.63
2019-02-27T07:01:49.356Z,18.15
2019-02-27T07:04:19.220Z,19.42
2019-02-27T07:06:49.185Z,16.07
2019-02-27T07:09:19.122Z,15.78
2019-02-27T07:11:49.063Z,16.57
2019-02-27T07:14:18.945Z,17.70
2019-02-27T07:16:48.948Z,18.77
2019-02-27T07:19:18.836Z,18.48
2019-02-27T07:21:48.768Z,21.37
2019-02-27T07:24:18.816Z,18.20
2019-02-27T07:26:50.278Z,23.32
2019-02-27T07:29:21.986Z,19.60
2019-02-27T07:31:52.659Z,24.18
2019-02-27T07:34:22.602Z,18.45
2019-02-27T07:36:52.451Z,17.52
2019-02-27T07:39:22.414Z,18.85
2019-02-27T07:41:52.357Z,14.00
2019-02-27T07:44:22.273Z,15.67
2019-02-27T07:46:52.153Z,18.97
2019-02-27T07:49:23.687Z,16.10
2019-02-27T07:51:57.169Z,15.83
2019-02-27T07:54:28.773Z,18.20
2019-02-27T07:56:56.733Z,21.47
2019-02-27T07:59:26.659Z,21.23
2019-02-27T08:01:56.533Z,15.27
2019-02-27T08:04:26.445Z,22.03
2019-02-27T08:06:56.342Z,20.80
2019-02-27T08:09:29.919Z,19.17
2019-02-27T08:11:57.932Z,20.13
2019-02-27T08:14:27.882Z,23.80
2019-02-27T08:16:58.144Z,15.70
2019-02-27T08:19:28.234Z,20.70
2019-02-27T08:21:58.162Z,17.47
2019-02-27T08:24:28.048Z,20.97
2019-02-27T08:26:57.927Z,18.60
2019-02-27T08:29:27.944Z,20.27
2019-02-27T08:32:01.011Z,18.10
2019-02-27T08:34:29.462Z,20.60
2019-02-27T08:36:59.310Z,21.47
2019-02-27T08:39:29.361Z,17.77
2019-02-27T08:42:03.152Z,17.27
2019-02-27T08:44:30.818Z,24.10
2019-02-27T08:47:00.739Z,22.17
2019-02-27T08:49:31.852Z,21.60
2019-02-27T08:52:01.954Z,21.37
2019-02-27T08:54:33.036Z,19.37
2019-02-27T08:57:03.184Z,20.37
2019-02-27T08:59:33.044Z,22.00
2019-02-27T09:02:02.935Z,19.87
2019-02-27T09:04:32.867Z,17.17
2019-02-27T09:07:03.470Z,17.23
2019-02-27T09:09:33.491Z,13.87
2019-02-27T09:12:03.353Z,15.83
2019-02-27T09:14:33.309Z,14.00
2019-02-27T09:17:03.546Z,17.10
2019-02-27T09:19:33.499Z,17.17
2019-02-27T09:22:03.418Z,15.23
2019-02-27T09:24:33.363Z,16.43
2019-02-27T09:27:04.793Z,14.57
2019-02-27T09:29:34.790Z,17.57
2019-02-27T09:32:04.678Z,17.83
2019-02-27T09:34:35.838Z,18.03
2019-02-27T09:37:05.779Z,16.50
2019-02-27T09:39:35.715Z,17.10
2019-02-27T09:42:05.599Z,17.70
2019-02-27T09:44:36.596Z,16.27
2019-02-27T09:47:06.704Z,19.57
2019-02-27T09:49:38.010Z,19.17
2019-02-27T09:52:08.564Z,19.43
2019-02-27T09:54:38.518Z,17.27
2019-02-27T09:57:08.612Z,19.20
2019-02-27T09:59:58.001Z,20.47
2019-02-27T10:02:27.923Z,18.07
2019-02-27T10:05:01.409Z,19.80
2019-02-27T10:07:29.444Z,20.53
2019-02-27T10:09:59.317Z,22.73
2019-02-27T10:12:29.283Z,17.73
2019-02-27T10:14:59.227Z,19.00
2019-02-27T10:17:29.157Z,17.57
2019-02-27T10:20:02.426Z,17.93
2019-02-27T10:22:30.717Z,18.73
2019-02-27T10:25:00.581Z,15.93
2019-02-27T10:27:30.444Z,15.20
2019-02-27T10:30:00.328Z,16.73
2019-02-27T10:32:31.625Z,15.00
2019-02-27T10:35:01.687Z,17.77
2019-02-27T10:37:31.841Z,16.67
2019-02-27T10:40:01.828Z,15.60
2019-02-27T10:42:33.444Z,15.50
2019-02-27T10:45:03.874Z,15.60
2019-02-27T10:47:36.505Z,13.57
2019-02-27T10:50:08.873Z,13.03
2019-02-27T10:52:38.821Z,14.17
2019-02-27T10:55:14.158Z,12.57
2019-02-27T10:57:45.090Z,13.77
2019-02-27T11:00:30.220Z,13.87
2019-02-27T11:03:01.104Z,16.03
2019-02-27T11:05:37.768Z,13.93
2019-02-27T11:08:07.865Z,15.67
2019-02-27T11:10:37.749Z,14.23
2019-02-27T11:13:08.290Z,19.30
2019-02-27T11:15:41.399Z,19.80
2019-02-27T11:18:10.432Z,17.70
2019-02-27T11:20:40.451Z,16.27
2019-02-27T11:23:10.420Z,16.20
2019-02-27T11:25:40.356Z,15.37
2019-02-27T11:28:10.244Z,15.60
2019-02-27T11:30:42.317Z,18.37
2019-02-27T11:33:24.779Z,15.17
2019-02-27T11:35:45.854Z,14.63
2019-02-27T11:38:15.472Z,14.03
2019-02-27T11:40:45.406Z,17.70
2019-02-27T11:43:34.684Z,15.07
2019-02-27T11:46:04.556Z,12.87
2019-02-27T11:48:34.397Z,12.57
2019-02-27T11:51:04.415Z,13.00
2019-02-27T11:53:35.955Z,11.13
2019-02-27T11:56:05.907Z,10.07
2019-02-27T11:58:38.368Z,12.93
2019-02-27T12:01:07.822Z,12.33
2019-02-27T12:03:37.957Z,12.27
2019-02-27T12:06:08.498Z,13.50
2019-02-27T12:08:38.549Z,10.40
2019-02-27T12:11:09.709Z,9.83
2019-02-27T12:13:40.048Z,10.63
2019-02-27T12:16:10.684Z,10.03
2019-02-27T12:18:40.753Z,9.43
2019-02-27T12:21:10.615Z,9.87
2019-02-27T12:23:41.254Z,7.13
2019-02-27T12:26:12.001Z,7.23
2019-02-27T12:28:41.948Z,8.07
2019-02-27T12:31:14.135Z,7.10
2019-02-27T12:33:43.359Z,8.87
2019-02-27T12:36:13.225Z,7.37
2019-02-27T12:38:43.275Z,6.87
2019-02-27T12:41:13.197Z,6.80
2019-02-27T12:43:43.127Z,7.67
2019-02-27T12:46:13.311Z,7.63
2019-02-27T12:48:46.038Z,10.13
2019-02-27T12:51:14.795Z,8.03
2019-02-27T12:53:44.669Z,8.67
2019-02-27T12:56:14.590Z,6.63
2019-02-27T12:58:44.987Z,9.50
2019-02-27T13:01:16.450Z,6.87
2019-02-27T13:03:46.415Z,10.37
2019-02-27T13:06:16.343Z,9.43
2019-02-27T13:08:46.287Z,7.70
2019-02-27T13:11:16.137Z,6.70
2019-02-27T13:13:46.016Z,7.03
2019-02-27T13:16:16.004Z,7.50
2019-02-27T13:18:46.516Z,8.87
2019-02-27T13:21:20.184Z,10.20
2019-02-27T13:23:49.130Z,8.03
2019-02-27T13:26:19.067Z,7.43
2019-02-27T13:28:49.652Z,10.07
2019-02-27T13:31:19.841Z,12.40
2019-02-27T13:33:49.691Z,7.57
2019-02-27T13:36:19.634Z,11.87
2019-02-27T13:38:52.131Z,12.40
2019-02-27T13:41:21.125Z,9.97
2019-02-27T13:43:50.992Z,13.17
2019-02-27T13:46:22.695Z,12.10
2019-02-27T13:48:52.400Z,8.13
2019-02-27T13:51:22.273Z,11.23
2019-02-27T13:53:52.141Z,9.27
2019-02-27T13:56:22.073Z,11.10
2019-02-27T13:58:53.091Z,9.97
2019-02-27T14:01:25.122Z,8.23
2019-02-27T14:03:54.573Z,8.43
2019-02-27T14:06:24.419Z,7.87
2019-02-27T14:08:54.284Z,6.73
2019-02-27T14:11:25.029Z,5.00
2019-02-27T14:13:55.934Z,6.10
2019-02-27T14:16:25.874Z,7.60
2019-02-27T14:18:55.793Z,6.87
2019-02-27T14:21:25.744Z,8.23
2019-02-27T14:23:55.673Z,8.37
2019-02-27T14:26:25.589Z,6.20
2019-02-27T14:28:55.853Z,8.87
2019-02-27T14:31:25.831Z,7.37
2019-02-27T14:33:55.693Z,9.33
2019-02-27T14:36:25.546Z,8.70
2019-02-27T14:38:56.488Z,7.57
2019-02-27T14:41:26.719Z,9.30
2019-02-27T14:43:57.695Z,7.23
2019-02-27T14:46:28.322Z,8.57
2019-02-27T14:48:58.313Z,8.17
2019-02-27T14:51:28.204Z,7.60
2019-02-27T14:53:58.053Z,8.63
2019-02-27T14:56:27.923Z,10.03
2019-02-27T14:58:57.847Z,6.97
2019-02-27T15:01:27.716Z,6.33
2019-02-27T15:04:00.461Z,5.30
2019-02-27T15:06:29.229Z,6.90
2019-02-27T15:09:03.354Z,6.03
2019-02-27T15:11:32.312Z,8.53
2019-02-27T15:14:02.245Z,7.53
2019-02-27T15:16:32.107Z,7.73
2019-02-27T15:19:02.029Z,6.03
2019-02-27T15:21:31.973Z,7.60
2019-02-27T15:24:02.177Z,6.37
2019-02-27T15:26:32.161Z,5.83
2019-02-27T15:29:05.712Z,6.40
2019-02-27T15:31:34.724Z,5.47
2019-02-27T15:34:04.725Z,6.07
2019-02-27T15:36:34.643Z,7.70
2019-02-27T15:39:06.858Z,7.23
2019-02-27T15:41:38.318Z,7.37
2019-02-27T15:44:08.239Z,9.83
2019-02-27T15:46:38.099Z,7.30
2019-02-27T15:49:09.102Z,8.90
2019-02-27T15:51:39.017Z,10.53
2019-02-27T15:54:08.859Z,8.93
2019-02-27T15:56:41.377Z,7.27
2019-02-27T15:59:10.350Z,7.37
2019-02-27T16:01:40.312Z,9.70
2019-02-27T16:04:10.254Z,9.60
2019-02-27T16:06:40.645Z,11.83
2019-02-27T16:09:10.740Z,9.70
2019-02-27T16:11:41.992Z,10.97
2019-02-27T16:14:11.929Z,10.37
2019-02-27T16:16:41.849Z,11.33
2019-02-27T16:19:11.712Z,8.87
2019-02-27T16:21:41.576Z,10.20
2019-02-27T16:24:11.514Z,11.30
2019-02-27T16:26:41.356Z,7.93
2019-02-27T16:29:11.410Z,11.60
2019-02-27T16:31:41.258Z,9.83
2019-02-27T16:34:11.434Z,11.97
2019-02-27T16:36:41.406Z,9.20
2019-02-27T16:39:11.460Z,9.83
2019-02-27T16:41:41.381Z,9.23
2019-02-27T16:44:11.274Z,11.07
2019-02-27T16:46:44.601Z,10.40
2019-02-27T16:49:13.819Z,12.27
2019-02-27T16:51:43.756Z,13.03
2019-02-27T16:54:13.671Z,11.73
2019-02-27T16:56:47.548Z,9.90
2019-02-27T16:59:15.096Z,11.23
2019-02-27T17:01:44.969Z,11.17
2019-02-27T17:04:14.815Z,11.27
2019-02-27T17:06:44.757Z,12.97
2019-02-27T17:09:14.628Z,15.33
2019-02-27T17:11:44.494Z,16.13
2019-02-27T17:14:14.476Z,13.97
2019-02-27T17:16:45.460Z,12.63
2019-02-27T17:19:15.601Z,12.10
2019-02-27T17:21:45.548Z,11.83
2019-02-27T17:24:20.810Z,11.60
2019-02-27T17:26:47.089Z,8.90
2019-02-27T17:29:17.095Z,11.00
2019-02-27T17:31:49.520Z,10.63
2019-02-27T17:34:18.638Z,15.50
2019-02-27T17:36:48.520Z,12.47
2019-02-27T17:39:18.465Z,12.13
2019-02-27T17:41:48.428Z,11.13
2019-02-27T17:44:18.359Z,10.43
2019-02-27T17:46:48.291Z,12.30
2019-02-27T17:49:18.219Z,11.50
2019-02-27T17:51:49.547Z,10.33
2019-02-27T17:54:19.588Z,12.00
2019-02-27T17:56:49.955Z,10.63
2019-02-27T17:59:21.655Z,12.33
2019-02-27T18:01:51.653Z,15.77
2019-02-27T18:04:21.524Z,14.13
2019-02-27T18:06:51.455Z,13.43
2019-02-27T18:09:23.534Z,13.73
2019-02-27T18:11:53.252Z,14.87
2019-02-27T18:14:24.925Z,14.40
2019-02-27T18:16:59.295Z,13.90
2019-02-27T18:19:28.800Z,16.70
2019-02-27T18:21:58.815Z,20.43
2019-02-27T18:24:33.322Z,20.63
2019-02-27T18:27:00.264Z,23.03
2019-02-27T18:29:30.213Z,27.60
2019-02-27T18:32:06.207Z,22.60
2019-02-27T18:34:31.769Z,20.90
2019-02-27T18:37:01.729Z,22.70
2019-02-27T18:39:36.385Z,19.23
2019-02-27T18:42:03.315Z,20.03
2019-02-27T18:44:33.180Z,22.17
2019-02-27T18:47:03.123Z,19.77
2019-02-27T18:49:33.130Z,18.07
2019-02-27T18:52:06.424Z,18.60
2019-02-27T18:54:34.721Z,22.53
2019-02-27T18:57:04.778Z,21.20
2019-02-27T18:59:34.726Z,23.20
2019-02-27T19:02:05.073Z,22.63
2019-02-27T19:04:35.911Z,24.63
2019-02-27T19:07:06.042Z,23.93
2019-02-27T19:09:35.988Z,20.17
2019-02-27T19:12:06.068Z,25.93
2019-02-27T19:14:36.721Z,26.23
2019-02-27T19:17:08.066Z,28.50
2019-02-27T19:19:38.236Z,26.93
2019-02-27T19:22:11.196Z,31.13
2019-02-27T19:24:39.844Z,24.70
2019-02-27T19:27:09.922Z,26.83
2019-02-27T19:29:39.918Z,23.87
2019-02-27T19:32:09.884Z,29.97
2019-02-27T19:34:41.543Z,24.40
2019-02-27T19:37:11.564Z,30.97
2019-02-27T19:39:41.510Z,33.93
2019-02-27T19:42:13.234Z,30.90
2019-02-27T19:44:43.028Z,29.77
2019-02-27T19:47:13.298Z,24.80
2019-02-27T19:49:43.252Z,28.77
2019-02-27T19:52:13.120Z,26.97
2019-02-27T19:54:43.010Z,25.70
2019-02-27T19:57:13.655Z,25.70
2019-02-27T19:59:43.536Z,25.73
2019-02-27T20:02:13.464Z,26.03
2019-02-27T20:04:45.916Z,27.47
2019-02-27T20:07:15.011Z,26.80
2019-02-27T20:09:44.968Z,31.77
2019-02-27T20:12:15.865Z,30.57
2019-02-27T20:14:46.559Z,31.37
2019-02-27T20:17:16.648Z,29.40
2019-02-27T20:19:46.759Z,24.77
2019-02-27T20:22:18.962Z,28.90
2019-02-27T20:24:57.981Z,25.77
2019-02-27T20:27:27.953Z,27.37
2019-02-27T20:29:58.763Z,28.30
2019-02-27T20:32:30.007Z,25.03
2019-02-27T20:35:00.655Z,27.00
2019-02-27T20:37:31.432Z,26.97
2019-02-27T20:40:01.916Z,23.43
2019-02-27T20:42:32.870Z,20.20
2019-02-27T20:45:03.313Z,28.23
2019-02-27T20:47:33.690Z,39.10
2019-02-27T20:50:04.885Z,26.97
2019-02-27T20:52:35.398Z,22.73
2019-02-27T20:55:06.743Z,23.83
2019-02-27T20:57:39.554Z,23.57
2019-02-27T21:00:16.267Z,25.27
2019-02-27T21:02:46.288Z,20.07
2019-02-27T21:05:18.672Z,24.07
2019-02-27T21:07:50.091Z,21.70
2019-02-27T21:10:24.295Z,19.10
2019-02-27T21:12:54.883Z,15.77
2019-02-27T21:15:25.855Z,15.87
2019-02-27T21:17:58.636Z,18.53
2019-02-27T21:20:30.365Z,15.90
2019-02-27T21:23:02.013Z,16.73
2019-02-27T21:25:36.549Z,17.43
2019-02-27T21:28:07.924Z,15.63
2019-02-27T21:30:43.821Z,19.80
2019-02-27T21:33:29.007Z,20.70
2019-02-27T21:36:07.091Z,17.83
2019-02-27T21:38:41.835Z,14.77
2019-02-27T21:41:15.506Z,23.30
2019-02-27T21:43:56.598Z,25.80
2019-02-27T21:46:30.161Z,17.23
2019-02-27T21:49:06.572Z,17.70
2019-02-27T21:51:37.643Z,15.97
2019-02-27T21:54:10.876Z,19.63
2019-02-27T21:56:42.808Z,12.20
2019-02-27T21:59:15.237Z,10.20
2019-02-27T22:01:49.749Z,11.50
2019-02-27T22:04:29.266Z,11.57
2019-02-27T22:07:08.367Z,14.27
2019-02-27T22:09:44.668Z,15.47
2019-02-27T22:12:20.869Z,12.57
2019-02-27T22:15:01.532Z,11.53
2019-02-27T22:17:42.182Z,12.50
2019-02-27T22:20:15.264Z,17.03
2019-02-27T22:22:50.429Z,11.30
2019-02-27T22:25:30.202Z,15.67
2019-02-27T22:28:06.032Z,12.23
2019-02-27T22:30:46.798Z,11.80
2019-02-27T22:33:23.019Z,13.33
2019-02-27T22:35:54.820Z,12.47
2019-02-27T22:38:29.958Z,14.27
2019-02-27T22:41:09.472Z,12.40
2019-02-27T22:43:43.507Z,18.27
2019-02-27T22:46:24.042Z,12.53
2019-02-27T22:49:14.913Z,13.20
2019-02-27T22:51:51.796Z,11.93
2019-02-27T22:54:25.473Z,11.97
2019-02-27T22:56:58.959Z,12.80
2019-02-27T22:59:37.384Z,14.53
2019-02-27T23:02:13.639Z,14.70
2019-02-27T23:04:49.068Z,16.90
2019-02-27T23:07:25.950Z,11.40
2019-02-27T23:09:58.749Z,14.00
2019-02-27T23:12:40.149Z,13.47
2019-02-27T23:15:18.031Z,13.10
2019-02-27T23:18:02.566Z,17.57
2019-02-27T23:20:47.456Z,16.97
2019-02-27T23:23:24.210Z,14.60
2019-02-27T23:26:19.797Z,14.83
2019-02-27T23:28:47.333Z,13.33
2019-02-27T23:31:23.474Z,12.97
2019-02-27T23:34:08.555Z,14.20
2019-02-27T23:36:44.533Z,12.77
2019-02-27T23:39:22.547Z,13.80
2019-02-27T23:41:57.233Z,16.97
2019-02-27T23:44:39.439Z,13.03
2019-02-27T23:47:14.798Z,13.17
2019-02-27T23:49:59.065Z,13.20
2019-02-27T23:52:34.369Z,12.37
2019-02-27T23:55:07.189Z,12.57
2019-02-27T23:57:39.316Z,12.33
